sensor_id;sensor_type;location;lat;lon;timestamp;pressure;altitude;pressure_sealevel;temperature;humidity
34506;BME280;20748;42.632;23.198;2023-05-08T00:00:24;92205.25;;;10.60;96.02
34506;BME280;20748;42.632;23.198;2023-05-08T00:02:56;92200.38;;;10.44;97.08
34506;BME280;20748;42.632;23.198;2023-05-08T00:05:29;92205.88;;;10.43;96.20
34506;BME280;20748;42.632;23.198;2023-05-08T00:08:01;92205.66;;;10.39;96.22
34506;BME280;20748;42.632;23.198;2023-05-08T00:10:34;92201.50;;;10.24;97.81
34506;BME280;20748;42.632;23.198;2023-05-08T00:13:06;92195.88;;;10.31;97.33
34506;BME280;20748;42.632;23.198;2023-05-08T00:15:39;92202.16;;;10.30;98.31
34506;BME280;20748;42.632;23.198;2023-05-08T00:18:12;92204.69;;;10.21;98.93
34506;BME280;20748;42.632;23.198;2023-05-08T00:20:44;92203.22;;;10.15;99.80
34506;BME280;20748;42.632;23.198;2023-05-08T00:23:16;92210.00;;;10.16;100.00
34506;BME280;20748;42.632;23.198;2023-05-08T00:25:49;92219.16;;;10.13;100.00
34506;BME280;20748;42.632;23.198;2023-05-08T00:28:21;92211.94;;;10.10;100.00
34506;BME280;20748;42.632;23.198;2023-05-08T00:30:54;92217.81;;;10.16;100.00
34506;BME280;20748;42.632;23.198;2023-05-08T00:33:27;92218.88;;;10.15;99.11
34506;BME280;20748;42.632;23.198;2023-05-08T00:35:59;92218.03;;;10.05;99.10
34506;BME280;20748;42.632;23.198;2023-05-08T00:38:33;92210.84;;;9.97;99.69
34506;BME280;20748;42.632;23.198;2023-05-08T00:41:06;92216.25;;;10.01;99.48
34506;BME280;20748;42.632;23.198;2023-05-08T00:43:38;92218.66;;;9.97;99.69
34506;BME280;20748;42.632;23.198;2023-05-08T00:46:12;92212.19;;;9.94;99.99
34506;BME280;20748;42.632;23.198;2023-05-08T00:48:45;92212.50;;;9.93;99.21
34506;BME280;20748;42.632;23.198;2023-05-08T00:51:18;92213.94;;;9.85;100.00
34506;BME280;20748;42.632;23.198;2023-05-08T00:53:50;92222.44;;;9.91;99.88
34506;BME280;20748;42.632;23.198;2023-05-08T00:56:23;92225.31;;;9.89;98.93
34506;BME280;20748;42.632;23.198;2023-05-08T00:58:56;92221.75;;;9.85;99.41
34506;BME280;20748;42.632;23.198;2023-05-08T01:01:31;92222.72;;;9.75;100.00
34506;BME280;20748;42.632;23.198;2023-05-08T01:04:04;92229.66;;;9.80;100.00
34506;BME280;20748;42.632;23.198;2023-05-08T01:06:36;92223.56;;;9.71;100.00
34506;BME280;20748;42.632;23.198;2023-05-08T01:09:09;92226.16;;;9.71;100.00
34506;BME280;20748;42.632;23.198;2023-05-08T01:11:46;92230.59;;;9.70;100.00
34506;BME280;20748;42.632;23.198;2023-05-08T01:14:34;92224.13;;;9.67;100.00
34506;BME280;20748;42.632;23.198;2023-05-08T01:17:11;92231.94;;;9.67;100.00
34506;BME280;20748;42.632;23.198;2023-05-08T01:19:59;92234.63;;;9.62;100.00
34506;BME280;20748;42.632;23.198;2023-05-08T01:23:06;92225.47;;;9.65;100.00
34506;BME280;20748;42.632;23.198;2023-05-08T01:26:04;92228.72;;;9.57;100.00
34506;BME280;20748;42.632;23.198;2023-05-08T01:32:16;92222.84;;;9.51;100.00
34506;BME280;20748;42.632;23.198;2023-05-08T01:34:56;92228.41;;;9.44;100.00
34506;BME280;20748;42.632;23.198;2023-05-08T01:37:36;92219.91;;;9.38;100.00
34506;BME280;20748;42.632;23.198;2023-05-08T01:40:15;92222.22;;;9.40;100.00
34506;BME280;20748;42.632;23.198;2023-05-08T01:42:51;92220.66;;;9.39;100.00
34506;BME280;20748;42.632;23.198;2023-05-08T01:45:31;92211.59;;;9.36;100.00
34506;BME280;20748;42.632;23.198;2023-05-08T01:48:10;92218.56;;;9.41;100.00
34506;BME280;20748;42.632;23.198;2023-05-08T01:50:46;92214.41;;;9.40;100.00
34506;BME280;20748;42.632;23.198;2023-05-08T01:53:22;92217.38;;;9.33;100.00
34506;BME280;20748;42.632;23.198;2023-05-08T01:55:58;92213.03;;;9.29;100.00
34506;BME280;20748;42.632;23.198;2023-05-08T01:58:32;92214.38;;;9.26;100.00
34506;BME280;20748;42.632;23.198;2023-05-08T02:01:06;92208.09;;;9.27;100.00
34506;BME280;20748;42.632;23.198;2023-05-08T02:03:41;92213.03;;;9.29;100.00
34506;BME280;20748;42.632;23.198;2023-05-08T02:06:17;92206.47;;;9.31;100.00
34506;BME280;20748;42.632;23.198;2023-05-08T02:08:51;92215.13;;;9.26;100.00
34506;BME280;20748;42.632;23.198;2023-05-08T02:11:25;92200.03;;;9.09;100.00
34506;BME280;20748;42.632;23.198;2023-05-08T02:13:58;92214.25;;;9.17;100.00
34506;BME280;20748;42.632;23.198;2023-05-08T02:16:32;92213.47;;;9.17;100.00
34506;BME280;20748;42.632;23.198;2023-05-08T02:19:07;92210.22;;;9.25;100.00
34506;BME280;20748;42.632;23.198;2023-05-08T02:21:40;92213.47;;;9.17;100.00
34506;BME280;20748;42.632;23.198;2023-05-08T02:24:14;92211.91;;;9.16;100.00
34506;BME280;20748;42.632;23.198;2023-05-08T02:26:47;92215.31;;;9.16;100.00
34506;BME280;20748;42.632;23.198;2023-05-08T02:29:21;92210.84;;;9.17;100.00
34506;BME280;20748;42.632;23.198;2023-05-08T02:31:55;92211.13;;;9.15;100.00
34506;BME280;20748;42.632;23.198;2023-05-08T02:34:30;92212.91;;;9.20;100.00
34506;BME280;20748;42.632;23.198;2023-05-08T02:37:04;92223.25;;;9.25;100.00
34506;BME280;20748;42.632;23.198;2023-05-08T02:39:38;92222.53;;;9.19;100.00
34506;BME280;20748;42.632;23.198;2023-05-08T02:42:13;92212.41;;;9.18;100.00
34506;BME280;20748;42.632;23.198;2023-05-08T02:44:45;92221.06;;;9.13;100.00
34506;BME280;20748;42.632;23.198;2023-05-08T02:47:20;92227.06;;;9.13;100.00
34506;BME280;20748;42.632;23.198;2023-05-08T02:50:00;92220.56;;;9.11;100.00
34506;BME280;20748;42.632;23.198;2023-05-08T02:52:40;92223.19;;;9.11;100.00
34506;BME280;20748;42.632;23.198;2023-05-08T02:55:22;92222.88;;;9.12;100.00
34506;BME280;20748;42.632;23.198;2023-05-08T02:58:04;92214.31;;;9.12;100.00
34506;BME280;20748;42.632;23.198;2023-05-08T03:00:45;92212.78;;;9.11;100.00
34506;BME280;20748;42.632;23.198;2023-05-08T03:03:23;92213.47;;;9.17;100.00
34506;BME280;20748;42.632;23.198;2023-05-08T03:05:59;92214.03;;;9.13;100.00
34506;BME280;20748;42.632;23.198;2023-05-08T03:08:34;92211.78;;;9.07;100.00
34506;BME280;20748;42.632;23.198;2023-05-08T03:11:08;92198.44;;;8.94;100.00
34506;BME280;20748;42.632;23.198;2023-05-08T03:13:44;92222.97;;;9.07;100.00
34506;BME280;20748;42.632;23.198;2023-05-08T03:16:20;92220.50;;;9.16;100.00
34506;BME280;20748;42.632;23.198;2023-05-08T03:18:58;92217.78;;;9.07;100.00
34506;BME280;20748;42.632;23.198;2023-05-08T03:21:32;92218.31;;;9.04;100.00
34506;BME280;20748;42.632;23.198;2023-05-08T03:24:07;92224.00;;;9.06;100.00
34506;BME280;20748;42.632;23.198;2023-05-08T03:26:41;92220.06;;;9.09;100.00
34506;BME280;20748;42.632;23.198;2023-05-08T03:29:14;92224.72;;;9.12;100.00
34506;BME280;20748;42.632;23.198;2023-05-08T03:31:48;92228.31;;;9.16;100.00
34506;BME280;20748;42.632;23.198;2023-05-08T03:34:22;92227.81;;;9.14;100.00
34506;BME280;20748;42.632;23.198;2023-05-08T03:36:56;92217.59;;;9.18;100.00
34506;BME280;20748;42.632;23.198;2023-05-08T03:39:29;92228.44;;;9.25;100.00
34506;BME280;20748;42.632;23.198;2023-05-08T03:42:01;92222.47;;;9.24;100.00
34506;BME280;20748;42.632;23.198;2023-05-08T03:44:34;92222.47;;;9.24;100.00
34506;BME280;20748;42.632;23.198;2023-05-08T03:47:09;92220.63;;;9.25;100.00
34506;BME280;20748;42.632;23.198;2023-05-08T03:49:42;92221.31;;;9.31;100.00
34506;BME280;20748;42.632;23.198;2023-05-08T03:52:17;92225.25;;;9.28;100.00
34506;BME280;20748;42.632;23.198;2023-05-08T03:54:49;92221.88;;;9.27;100.00
34506;BME280;20748;42.632;23.198;2023-05-08T03:57:27;92230.75;;;9.26;100.00
34506;BME280;20748;42.632;23.198;2023-05-08T04:00:05;92225.53;;;9.26;100.00
34506;BME280;20748;42.632;23.198;2023-05-08T04:02:53;92230.13;;;9.35;100.00
34506;BME280;20748;42.632;23.198;2023-05-08T04:05:37;92232.66;;;9.40;100.00
34506;BME280;20748;42.632;23.198;2023-05-08T04:08:19;92232.66;;;9.40;100.00
34506;BME280;20748;42.632;23.198;2023-05-08T04:11:01;92237.56;;;9.42;100.00
34506;BME280;20748;42.632;23.198;2023-05-08T04:13:40;92242.41;;;9.48;100.00
34506;BME280;20748;42.632;23.198;2023-05-08T04:16:19;92235.38;;;9.49;100.00
34506;BME280;20748;42.632;23.198;2023-05-08T04:18:57;92227.38;;;9.59;100.00
34506;BME280;20748;42.632;23.198;2023-05-08T04:21:33;92232.44;;;9.70;100.00
34506;BME280;20748;42.632;23.198;2023-05-08T04:24:09;92227.34;;;9.78;100.00
34506;BME280;20748;42.632;23.198;2023-05-08T04:26:44;92236.06;;;9.88;100.00
34506;BME280;20748;42.632;23.198;2023-05-08T04:29:17;92228.63;;;9.95;100.00
34506;BME280;20748;42.632;23.198;2023-05-08T04:31:51;92233.75;;;10.00;100.00
34506;BME280;20748;42.632;23.198;2023-05-08T04:34:24;92225.84;;;10.05;100.00
34506;BME280;20748;42.632;23.198;2023-05-08T04:36:57;92231.81;;;10.20;100.00
34506;BME280;20748;42.632;23.198;2023-05-08T04:39:30;92237.31;;;10.18;100.00
34506;BME280;20748;42.632;23.198;2023-05-08T04:42:03;92233.16;;;10.17;100.00
34506;BME280;20748;42.632;23.198;2023-05-08T04:44:38;92231.16;;;10.28;100.00
34506;BME280;20748;42.632;23.198;2023-05-08T04:47:11;92227.97;;;10.17;100.00
34506;BME280;20748;42.632;23.198;2023-05-08T04:49:43;92233.66;;;10.33;100.00
34506;BME280;20748;42.632;23.198;2023-05-08T04:52:16;92231.94;;;10.43;100.00
34506;BME280;20748;42.632;23.198;2023-05-08T04:54:50;92223.56;;;10.46;100.00
34506;BME280;20748;42.632;23.198;2023-05-08T04:57:22;92221.78;;;10.69;100.00
34506;BME280;20748;42.632;23.198;2023-05-08T04:59:55;92223.13;;;10.81;100.00
34506;BME280;20748;42.632;23.198;2023-05-08T05:02:28;92226.34;;;11.00;100.00
34506;BME280;20748;42.632;23.198;2023-05-08T05:05:01;92223.13;;;11.18;100.00
34506;BME280;20748;42.632;23.198;2023-05-08T05:07:35;92223.66;;;11.28;100.00
34506;BME280;20748;42.632;23.198;2023-05-08T05:10:09;92188.63;;;11.30;100.00
34506;BME280;20748;42.632;23.198;2023-05-08T05:12:42;92214.91;;;11.56;100.00
34506;BME280;20748;42.632;23.198;2023-05-08T05:15:14;92207.41;;;11.63;100.00
34506;BME280;20748;42.632;23.198;2023-05-08T05:17:47;92208.31;;;11.81;100.00
34506;BME280;20748;42.632;23.198;2023-05-08T05:20:20;92201.91;;;11.97;100.00
34506;BME280;20748;42.632;23.198;2023-05-08T05:22:52;92203.53;;;12.15;100.00
34506;BME280;20748;42.632;23.198;2023-05-08T05:25:25;92209.91;;;12.32;100.00
34506;BME280;20748;42.632;23.198;2023-05-08T05:27:58;92215.78;;;12.46;100.00
34506;BME280;20748;42.632;23.198;2023-05-08T05:30:31;92207.69;;;12.66;100.00
34506;BME280;20748;42.632;23.198;2023-05-08T05:33:04;92202.47;;;12.74;100.00
34506;BME280;20748;42.632;23.198;2023-05-08T05:35:36;92207.25;;;12.72;100.00
34506;BME280;20748;42.632;23.198;2023-05-08T05:38:09;92206.31;;;12.77;100.00
34506;BME280;20748;42.632;23.198;2023-05-08T05:40:42;92213.88;;;12.70;96.33
34506;BME280;20748;42.632;23.198;2023-05-08T05:43:14;92208.34;;;12.71;97.07
34506;BME280;20748;42.632;23.198;2023-05-08T05:45:47;92211.28;;;12.96;98.67
34506;BME280;20748;42.632;23.198;2023-05-08T05:48:19;92213.13;;;13.13;98.22
34506;BME280;20748;42.632;23.198;2023-05-08T05:50:51;92202.97;;;13.12;96.96
34506;BME280;20748;42.632;23.198;2023-05-08T05:53:24;92206.19;;;13.44;98.93
34506;BME280;20748;42.632;23.198;2023-05-08T05:55:57;92209.88;;;13.69;96.64
34506;BME280;20748;42.632;23.198;2023-05-08T05:58:30;92205.81;;;13.90;94.37
34506;BME280;20748;42.632;23.198;2023-05-08T06:01:03;92206.84;;;14.15;93.65
34506;BME280;20748;42.632;23.198;2023-05-08T06:03:36;92210.00;;;14.30;90.35
34506;BME280;20748;42.632;23.198;2023-05-08T06:06:09;92204.03;;;14.50;90.17
34506;BME280;20748;42.632;23.198;2023-05-08T06:08:41;92200.56;;;14.68;87.10
34506;BME280;20748;42.632;23.198;2023-05-08T06:11:14;92205.41;;;14.87;86.43
34506;BME280;20748;42.632;23.198;2023-05-08T06:13:47;92197.78;;;14.94;86.52
34506;BME280;20748;42.632;23.198;2023-05-08T06:16:22;92200.84;;;15.17;85.70
34506;BME280;20748;42.632;23.198;2023-05-08T06:18:55;92198.28;;;15.30;84.25
34506;BME280;20748;42.632;23.198;2023-05-08T06:21:29;92196.50;;;15.55;84.04
34506;BME280;20748;42.632;23.198;2023-05-08T06:24:02;92203.28;;;15.78;82.58
34506;BME280;20748;42.632;23.198;2023-05-08T06:26:35;92207.19;;;15.93;80.39
34506;BME280;20748;42.632;23.198;2023-05-08T06:29:07;92207.22;;;16.18;80.17
34506;BME280;20748;42.632;23.198;2023-05-08T06:31:39;92204.69;;;16.34;77.64
34506;BME280;20748;42.632;23.198;2023-05-08T06:34:12;92212.59;;;16.46;78.33
34506;BME280;20748;42.632;23.198;2023-05-08T06:36:44;92211.50;;;16.60;78.53
34506;BME280;20748;42.632;23.198;2023-05-08T06:39:17;92214.03;;;16.81;76.55
34506;BME280;20748;42.632;23.198;2023-05-08T06:41:50;92219.81;;;16.87;74.64
34506;BME280;20748;42.632;23.198;2023-05-08T06:44:30;92212.47;;;17.05;74.33
34506;BME280;20748;42.632;23.198;2023-05-08T06:47:03;92217.28;;;17.15;73.20
34506;BME280;20748;42.632;23.198;2023-05-08T06:49:35;92210.88;;;17.29;71.75
34506;BME280;20748;42.632;23.198;2023-05-08T06:52:08;92213.16;;;17.30;71.96
34506;BME280;20748;42.632;23.198;2023-05-08T06:54:40;92223.94;;;17.38;71.64
34506;BME280;20748;42.632;23.198;2023-05-08T06:57:13;92218.16;;;17.48;70.85
34506;BME280;20748;42.632;23.198;2023-05-08T06:59:46;92222.09;;;17.54;69.81
34506;BME280;20748;42.632;23.198;2023-05-08T07:02:19;92231.28;;;17.73;69.32
34506;BME280;20748;42.632;23.198;2023-05-08T07:04:51;92230.38;;;17.53;69.39
34506;BME280;20748;42.632;23.198;2023-05-08T07:07:23;92233.84;;;17.85;69.75
34506;BME280;20748;42.632;23.198;2023-05-08T07:09:56;92228.72;;;17.77;67.69
34506;BME280;20748;42.632;23.198;2023-05-08T07:12:29;92230.19;;;17.90;67.69
34506;BME280;20748;42.632;23.198;2023-05-08T07:15:01;92233.34;;;18.08;67.75
34506;BME280;20748;42.632;23.198;2023-05-08T07:17:49;92224.56;;;18.20;66.81
34506;BME280;20748;42.632;23.198;2023-05-08T07:20:22;92234.28;;;18.32;63.91
34506;BME280;20748;42.632;23.198;2023-05-08T07:22:55;92227.72;;;18.42;64.56
34506;BME280;20748;42.632;23.198;2023-05-08T07:25:27;92226.84;;;18.54;62.90
34506;BME280;20748;42.632;23.198;2023-05-08T07:28:00;92227.78;;;18.62;65.23
34506;BME280;20748;42.632;23.198;2023-05-08T07:30:33;92229.28;;;18.79;64.23
34506;BME280;20748;42.632;23.198;2023-05-08T07:33:05;92242.06;;;18.93;62.61
34506;BME280;20748;42.632;23.198;2023-05-08T07:35:38;92233.94;;;19.02;62.48
34506;BME280;20748;42.632;23.198;2023-05-08T07:38:11;92236.16;;;19.00;62.49
34506;BME280;20748;42.632;23.198;2023-05-08T07:40:43;92237.19;;;19.11;61.49
34506;BME280;20748;42.632;23.198;2023-05-08T07:43:17;92234.47;;;19.08;61.50
34506;BME280;20748;42.632;23.198;2023-05-08T07:45:49;92238.81;;;19.16;60.54
34506;BME280;20748;42.632;23.198;2023-05-08T07:48:22;92237.34;;;19.18;60.41
34506;BME280;20748;42.632;23.198;2023-05-08T07:50:54;92235.56;;;19.23;60.59
34506;BME280;20748;42.632;23.198;2023-05-08T07:53:27;92240.44;;;19.40;59.97
34506;BME280;20748;42.632;23.198;2023-05-08T07:56:00;92243.00;;;19.56;60.16
34506;BME280;20748;42.632;23.198;2023-05-08T07:58:33;92237.44;;;19.62;58.87
34506;BME280;20748;42.632;23.198;2023-05-08T08:01:06;92248.25;;;19.53;58.82
34506;BME280;20748;42.632;23.198;2023-05-08T08:03:38;92251.44;;;19.42;57.41
34506;BME280;20748;42.632;23.198;2023-05-08T08:06:11;92254.63;;;19.32;58.55
34506;BME280;20748;42.632;23.198;2023-05-08T08:08:43;92255.47;;;19.36;59.58
34506;BME280;20748;42.632;23.198;2023-05-08T08:11:16;92256.19;;;19.53;59.37
34506;BME280;20748;42.632;23.198;2023-05-08T08:13:49;92252.06;;;19.55;59.84
34506;BME280;20748;42.632;23.198;2023-05-08T08:16:21;92259.41;;;19.62;59.75
34506;BME280;20748;42.632;23.198;2023-05-08T08:18:54;92257.69;;;19.54;60.79
34506;BME280;20748;42.632;23.198;2023-05-08T08:21:26;92258.00;;;19.68;62.61
34506;BME280;20748;42.632;23.198;2023-05-08T08:23:59;92263.34;;;19.92;58.81
34506;BME280;20748;42.632;23.198;2023-05-08T08:26:31;92253.34;;;20.01;58.94
34506;BME280;20748;42.632;23.198;2023-05-08T08:29:04;92262.81;;;20.02;57.75
34506;BME280;20748;42.632;23.198;2023-05-08T08:31:37;92273.06;;;20.04;55.68
34506;BME280;20748;42.632;23.198;2023-05-08T08:34:09;92257.28;;;20.11;55.17
34506;BME280;20748;42.632;23.198;2023-05-08T08:36:42;92264.53;;;20.14;56.27
34506;BME280;20748;42.632;23.198;2023-05-08T08:39:14;92266.84;;;19.56;56.93
34506;BME280;20748;42.632;23.198;2023-05-08T08:41:46;92264.41;;;19.87;56.22
34506;BME280;20748;42.632;23.198;2023-05-08T08:44:19;92257.44;;;19.59;57.61
34506;BME280;20748;42.632;23.198;2023-05-08T08:46:52;92263.28;;;19.68;56.41
34506;BME280;20748;42.632;23.198;2023-05-08T08:49:28;92265.63;;;19.73;58.39
34506;BME280;20748;42.632;23.198;2023-05-08T08:52:06;92262.13;;;19.30;58.50
34506;BME280;20748;42.632;23.198;2023-05-08T08:54:43;92249.56;;;19.07;57.94
34506;BME280;20748;42.632;23.198;2023-05-08T08:57:17;92249.53;;;18.71;58.40
34506;BME280;20748;42.632;23.198;2023-05-08T08:59:52;92251.91;;;18.44;59.46
34506;BME280;20748;42.632;23.198;2023-05-08T09:02:26;92247.28;;;18.25;60.99
34506;BME280;20748;42.632;23.198;2023-05-08T09:05:01;92243.41;;;18.51;61.72
34506;BME280;20748;42.632;23.198;2023-05-08T09:07:35;92234.78;;;17.93;63.97
34506;BME280;20748;42.632;23.198;2023-05-08T09:10:09;92235.22;;;17.95;64.35
34506;BME280;20748;42.632;23.198;2023-05-08T09:12:47;92228.97;;;18.16;65.61
34506;BME280;20748;42.632;23.198;2023-05-08T09:15:20;92219.25;;;18.04;64.57
34506;BME280;20748;42.632;23.198;2023-05-08T09:17:52;92214.25;;;18.15;63.94
34506;BME280;20748;42.632;23.198;2023-05-08T09:20:25;92198.47;;;18.19;62.87
34506;BME280;20748;42.632;23.198;2023-05-08T09:22:59;92194.16;;;18.27;63.13
34506;BME280;20748;42.632;23.198;2023-05-08T09:25:42;92193.94;;;18.51;63.44
34506;BME280;20748;42.632;23.198;2023-05-08T09:28:15;92196.16;;;18.65;62.74
34506;BME280;20748;42.632;23.198;2023-05-08T09:30:50;92190.50;;;18.83;62.18
34506;BME280;20748;42.632;23.198;2023-05-08T09:33:24;92196.03;;;18.94;61.68
34506;BME280;20748;42.632;23.198;2023-05-08T09:35:57;92202.81;;;19.11;58.77
34506;BME280;20748;42.632;23.198;2023-05-08T09:38:36;92204.09;;;19.17;60.71
34506;BME280;20748;42.632;23.198;2023-05-08T09:41:10;92207.09;;;19.36;60.55
34506;BME280;20748;42.632;23.198;2023-05-08T09:43:44;92204.94;;;19.41;58.72
34506;BME280;20748;42.632;23.198;2023-05-08T09:46:32;92218.72;;;19.51;58.76
34506;BME280;20748;42.632;23.198;2023-05-08T09:49:05;92219.41;;;19.67;58.19
34506;BME280;20748;42.632;23.198;2023-05-08T09:51:37;92223.06;;;19.82;56.99
34506;BME280;20748;42.632;23.198;2023-05-08T09:54:22;92214.16;;;19.91;54.12
34506;BME280;20748;42.632;23.198;2023-05-08T09:56:54;92215.06;;;19.79;55.24
34506;BME280;20748;42.632;23.198;2023-05-08T09:59:28;92219.00;;;19.65;56.09
34506;BME280;20748;42.632;23.198;2023-05-08T10:02:10;92215.78;;;19.36;57.16
34506;BME280;20748;42.632;23.198;2023-05-08T10:04:43;92216.53;;;19.76;57.70
34506;BME280;20748;42.632;23.198;2023-05-08T10:07:15;92215.00;;;19.95;57.17
34506;BME280;20748;42.632;23.198;2023-05-08T10:09:58;92214.84;;;19.44;55.83
34506;BME280;20748;42.632;23.198;2023-05-08T10:12:33;92205.47;;;19.11;57.97
34506;BME280;20748;42.632;23.198;2023-05-08T10:15:06;92204.59;;;19.43;57.92
34506;BME280;20748;42.632;23.198;2023-05-08T10:17:45;92202.00;;;19.27;59.31
34506;BME280;20748;42.632;23.198;2023-05-08T10:20:24;92198.66;;;19.10;58.53
34506;BME280;20748;42.632;23.198;2023-05-08T10:23:00;92197.28;;;19.36;58.43
34506;BME280;20748;42.632;23.198;2023-05-08T10:25:35;92192.94;;;19.67;57.35
34506;BME280;20748;42.632;23.198;2023-05-08T10:28:12;92193.34;;;19.50;58.54
34506;BME280;20748;42.632;23.198;2023-05-08T10:30:47;92196.16;;;19.57;56.61
34506;BME280;20748;42.632;23.198;2023-05-08T10:33:24;92190.94;;;19.61;57.48
34506;BME280;20748;42.632;23.198;2023-05-08T10:36:03;92191.63;;;19.57;58.48
34506;BME280;20748;42.632;23.198;2023-05-08T10:38:36;92192.09;;;19.83;59.26
34506;BME280;20748;42.632;23.198;2023-05-08T10:41:09;92186.91;;;20.10;57.14
34506;BME280;20748;42.632;23.198;2023-05-08T10:43:42;92185.19;;;19.98;57.48
34506;BME280;20748;42.632;23.198;2023-05-08T10:46:20;92181.66;;;20.14;54.74
34506;BME280;20748;42.632;23.198;2023-05-08T10:48:58;92180.41;;;20.54;56.50
34506;BME280;20748;42.632;23.198;2023-05-08T10:51:40;92179.00;;;20.87;54.51
34506;BME280;20748;42.632;23.198;2023-05-08T10:54:18;92179.41;;;20.89;53.92
34506;BME280;20748;42.632;23.198;2023-05-08T10:57:06;92180.44;;;21.12;52.44
34506;BME280;20748;42.632;23.198;2023-05-08T10:59:43;92179.03;;;20.91;52.53
34506;BME280;20748;42.632;23.198;2023-05-08T11:02:25;92178.28;;;21.21;51.10
34506;BME280;20748;42.632;23.198;2023-05-08T11:05:13;92175.38;;;20.99;47.38
34506;BME280;20748;42.632;23.198;2023-05-08T11:07:53;92150.25;;;21.58;46.43
34506;BME280;20748;42.632;23.198;2023-05-08T11:10:29;92147.31;;;21.67;47.97
34506;BME280;20748;42.632;23.198;2023-05-08T11:13:03;92150.81;;;22.12;46.33
34506;BME280;20748;42.632;23.198;2023-05-08T11:15:37;92150.97;;;21.89;46.23
34506;BME280;20748;42.632;23.198;2023-05-08T11:18:09;92142.84;;;22.12;44.84
34506;BME280;20748;42.632;23.198;2023-05-08T11:20:56;92134.31;;;22.41;42.79
34506;BME280;20748;42.632;23.198;2023-05-08T11:23:29;92127.63;;;22.58;41.95
34506;BME280;20748;42.632;23.198;2023-05-08T11:26:03;92128.09;;;22.22;41.59
34506;BME280;20748;42.632;23.198;2023-05-08T11:28:36;92124.66;;;22.67;41.57
34506;BME280;20748;42.632;23.198;2023-05-08T11:31:09;92120.69;;;22.50;40.44
34506;BME280;20748;42.632;23.198;2023-05-08T11:33:42;92114.75;;;22.67;40.46
34506;BME280;20748;42.632;23.198;2023-05-08T11:36:16;92114.75;;;22.67;39.74
34506;BME280;20748;42.632;23.198;2023-05-08T11:39:04;92107.72;;;23.01;39.76
34506;BME280;20748;42.632;23.198;2023-05-08T11:41:38;92105.13;;;23.19;39.38
34506;BME280;20748;42.632;23.198;2023-05-08T11:44:17;92083.19;;;23.40;38.29
34506;BME280;20748;42.632;23.198;2023-05-08T11:46:52;92086.94;;;23.39;40.17
34506;BME280;20748;42.632;23.198;2023-05-08T11:49:25;92086.47;;;23.12;38.48
34506;BME280;20748;42.632;23.198;2023-05-08T11:52:02;92090.44;;;23.80;38.94
34506;BME280;20748;42.632;23.198;2023-05-08T11:54:36;92089.66;;;23.57;38.94
34506;BME280;20748;42.632;23.198;2023-05-08T11:57:09;92087.00;;;23.50;38.66
34506;BME280;20748;42.632;23.198;2023-05-08T11:59:41;92092.47;;;22.94;39.49
34506;BME280;20748;42.632;23.198;2023-05-08T12:02:14;92085.03;;;23.29;39.19
34506;BME280;20748;42.632;23.198;2023-05-08T12:04:46;92094.19;;;23.42;39.61
34506;BME280;20748;42.632;23.198;2023-05-08T12:07:20;92095.59;;;23.11;39.30
34506;BME280;20748;42.632;23.198;2023-05-08T12:09:52;92097.41;;;22.88;39.47
34506;BME280;20748;42.632;23.198;2023-05-08T12:12:35;92089.03;;;22.86;40.54
34506;BME280;20748;42.632;23.198;2023-05-08T12:15:08;92107.69;;;22.93;41.50
34506;BME280;20748;42.632;23.198;2023-05-08T12:17:41;92110.19;;;22.64;47.37
34506;BME280;20748;42.632;23.198;2023-05-08T12:20:15;92106.06;;;22.22;50.09
34506;BME280;20748;42.632;23.198;2023-05-08T12:22:50;92107.63;;;22.23;54.67
34506;BME280;20748;42.632;23.198;2023-05-08T12:25:24;92105.75;;;21.82;61.51
34506;BME280;20748;42.632;23.198;2023-05-08T12:27:57;92094.28;;;21.70;59.57
34506;BME280;20748;42.632;23.198;2023-05-08T12:30:30;92093.59;;;21.39;58.45
34506;BME280;20748;42.632;23.198;2023-05-08T12:33:03;92097.41;;;21.42;61.26
34506;BME280;20748;42.632;23.198;2023-05-08T12:35:44;92100.06;;;21.42;61.00
34506;BME280;20748;42.632;23.198;2023-05-08T12:38:17;92106.13;;;21.42;63.49
34506;BME280;20748;42.632;23.198;2023-05-08T12:40:50;92101.88;;;21.34;61.78
34506;BME280;20748;42.632;23.198;2023-05-08T12:43:30;92098.69;;;21.21;60.29
34506;BME280;20748;42.632;23.198;2023-05-08T12:46:03;92091.81;;;21.16;60.41
34506;BME280;20748;42.632;23.198;2023-05-08T12:48:35;92088.59;;;21.00;62.25
34506;BME280;20748;42.632;23.198;2023-05-08T12:51:09;92088.56;;;20.96;62.35
34506;BME280;20748;42.632;23.198;2023-05-08T12:53:45;92081.31;;;20.89;63.42
34506;BME280;20748;42.632;23.198;2023-05-08T12:56:20;92081.25;;;20.86;63.89
34506;BME280;20748;42.632;23.198;2023-05-08T12:58:57;92082.47;;;20.92;66.47
34506;BME280;20748;42.632;23.198;2023-05-08T13:01:30;92071.91;;;20.96;68.91
34506;BME280;20748;42.632;23.198;2023-05-08T13:04:06;92073.50;;;21.04;69.17
34506;BME280;20748;42.632;23.198;2023-05-08T13:06:38;92073.78;;;20.95;75.68
34506;BME280;20748;42.632;23.198;2023-05-08T13:09:17;92072.94;;;20.87;75.16
34506;BME280;20748;42.632;23.198;2023-05-08T13:11:49;92078.09;;;20.76;81.75
34506;BME280;20748;42.632;23.198;2023-05-08T13:14:22;92074.75;;;20.52;82.44
34506;BME280;20748;42.632;23.198;2023-05-08T13:16:54;92079.22;;;20.48;82.48
34506;BME280;20748;42.632;23.198;2023-05-08T13:19:27;92079.53;;;20.43;81.64
34506;BME280;20748;42.632;23.198;2023-05-08T13:21:59;92075.94;;;20.28;82.94
34506;BME280;20748;42.632;23.198;2023-05-08T13:24:32;92073.56;;;20.23;86.12
34506;BME280;20748;42.632;23.198;2023-05-08T13:27:05;92079.19;;;20.18;86.63
34506;BME280;20748;42.632;23.198;2023-05-08T13:29:37;92073.38;;;20.08;88.48
34506;BME280;20748;42.632;23.198;2023-05-08T13:32:09;92077.19;;;19.64;93.09